createdAt,value
2019-01-16T00:00:48.026Z,0.00
2019-01-16T00:01:47.785Z,0.00
2019-01-16T00:02:47.700Z,0.00
2019-01-16T00:03:47.781Z,0.00
2019-01-16T00:04:47.527Z,0.00
2019-01-16T00:05:47.589Z,0.00
2019-01-16T00:06:47.367Z,0.00
2019-01-16T00:07:47.400Z,0.00
2019-01-16T00:08:47.179Z,0.00
2019-01-16T00:09:47.209Z,0.00
2019-01-16T00:10:47.013Z,0.00
2019-01-16T00:11:47.047Z,0.00
2019-01-16T00:12:46.843Z,0.00
2019-01-16T00:13:47.570Z,0.00
2019-01-16T00:14:46.830Z,0.00
2019-01-16T00:15:46.587Z,0.00
2019-01-16T00:16:46.521Z,0.00
2019-01-16T00:17:46.440Z,0.00
2019-01-16T00:18:46.338Z,0.00
2019-01-16T00:19:46.249Z,0.00
2019-01-16T00:20:46.260Z,0.00
2019-01-16T00:21:46.105Z,0.00
2019-01-16T00:22:45.988Z,0.00
2019-01-16T00:23:46.069Z,0.00
2019-01-16T00:24:45.827Z,0.00
2019-01-16T00:25:45.735Z,0.00
2019-01-16T00:26:45.685Z,0.00
2019-01-16T00:27:45.576Z,0.00
2019-01-16T00:28:45.488Z,0.00
2019-01-16T00:29:45.496Z,0.00
2019-01-16T00:30:45.305Z,0.00
2019-01-16T00:31:45.227Z,0.00
2019-01-16T00:32:45.363Z,0.00
2019-01-16T00:33:45.055Z,0.00
2019-01-16T00:34:44.974Z,0.00
2019-01-16T00:35:44.922Z,0.00
2019-01-16T00:36:44.807Z,0.00
2019-01-16T00:37:44.726Z,0.00
2019-01-16T00:38:44.738Z,0.00
2019-01-16T00:39:44.538Z,0.00
2019-01-16T00:40:44.479Z,0.00
2019-01-16T00:41:44.554Z,0.00
2019-01-16T00:42:44.297Z,0.00
2019-01-16T00:43:44.207Z,0.00
2019-01-16T00:44:44.161Z,0.00
2019-01-16T00:45:44.026Z,0.00
2019-01-16T00:46:43.973Z,0.00
2019-01-16T00:47:43.874Z,0.00
2019-01-16T00:48:43.779Z,0.00
2019-01-16T00:49:43.792Z,0.00
2019-01-16T00:50:43.610Z,0.00
2019-01-16T00:51:43.516Z,0.00
2019-01-16T00:52:43.637Z,0.00
2019-01-16T00:53:43.357Z,0.00
2019-01-16T00:54:43.263Z,0.00
2019-01-16T00:55:43.209Z,0.00
2019-01-16T00:56:43.095Z,0.00
2019-01-16T00:57:43.050Z,0.00
2019-01-16T00:58:42.936Z,0.00
2019-01-16T00:59:42.835Z,0.00
2019-01-16T01:00:42.749Z,0.00
2019-01-16T01:01:42.842Z,0.00
2019-01-16T01:02:42.585Z,0.00
2019-01-16T01:03:42.515Z,0.00
2019-01-16T01:04:42.421Z,0.00
2019-01-16T01:05:42.457Z,0.00
2019-01-16T01:06:42.243Z,0.00
2019-01-16T01:07:42.161Z,0.00
2019-01-16T01:08:42.113Z,0.00
2019-01-16T01:09:41.983Z,0.00
2019-01-16T01:10:42.086Z,0.00
2019-01-16T01:11:41.823Z,0.00
2019-01-16T01:12:41.892Z,0.00
2019-01-16T01:13:41.655Z,0.00
2019-01-16T01:14:41.704Z,0.00
2019-01-16T01:15:41.479Z,0.00
2019-01-16T01:16:41.511Z,0.00
2019-01-16T01:17:41.303Z,0.00
2019-01-16T01:18:41.362Z,0.00
2019-01-16T01:19:41.130Z,0.00
2019-01-16T01:20:41.125Z,0.00
2019-01-16T01:21:40.962Z,0.00
2019-01-16T01:22:40.931Z,0.00
2019-01-16T01:23:40.800Z,0.00
2019-01-16T01:24:40.741Z,0.00
2019-01-16T01:25:40.616Z,0.00
2019-01-16T01:26:40.559Z,0.00
2019-01-16T01:27:40.451Z,0.00
2019-01-16T01:28:40.605Z,0.00
2019-01-16T01:29:40.280Z,0.00
2019-01-16T01:30:40.197Z,0.00
2019-01-16T01:31:40.172Z,0.00
2019-01-16T01:32:40.022Z,0.00
2019-01-16T01:33:39.937Z,0.00
2019-01-16T01:34:40.031Z,0.00
2019-01-16T01:35:39.770Z,0.00
2019-01-16T01:36:39.803Z,0.00
2019-01-16T01:37:39.597Z,0.00
2019-01-16T01:38:39.604Z,0.00
2019-01-16T01:39:39.441Z,0.00
2019-01-16T01:40:39.349Z,0.00
2019-01-16T01:41:39.422Z,0.00
2019-01-16T01:42:39.181Z,0.00
2019-01-16T01:43:39.081Z,0.00
2019-01-16T01:44:39.073Z,0.00
2019-01-16T01:45:38.917Z,0.00
2019-01-16T01:46:39.043Z,0.00
2019-01-16T01:47:38.742Z,0.00
2019-01-16T01:48:40.085Z,0.00
2019-01-16T01:49:38.583Z,0.00
2019-01-16T01:50:38.663Z,0.00
2019-01-16T01:51:38.401Z,0.00
2019-01-16T01:52:38.470Z,0.00
2019-01-16T01:53:38.237Z,0.00
2019-01-16T01:54:38.165Z,0.00
2019-01-16T01:55:38.079Z,0.00
2019-01-16T01:56:37.981Z,0.00
2019-01-16T01:57:37.886Z,0.00
2019-01-16T01:58:37.901Z,0.00
2019-01-16T01:59:37.747Z,0.00
2019-01-16T02:00:37.637Z,0.00
2019-01-16T02:01:37.712Z,0.00
2019-01-16T02:02:37.460Z,0.00
2019-01-16T02:03:37.373Z,0.00
2019-01-16T02:04:37.383Z,0.00
2019-01-16T02:05:37.203Z,0.00
2019-01-16T02:06:37.336Z,0.00
2019-01-16T02:07:37.032Z,0.00
2019-01-16T02:08:37.141Z,0.00
2019-01-16T02:09:36.901Z,0.00
2019-01-16T02:10:36.951Z,0.00
2019-01-16T02:11:36.687Z,0.00
2019-01-16T02:12:36.759Z,0.00
2019-01-16T02:13:36.524Z,0.00
2019-01-16T02:14:36.570Z,0.00
2019-01-16T02:15:36.371Z,0.00
2019-01-16T02:16:36.262Z,0.00
2019-01-16T02:17:36.380Z,0.00
2019-01-16T02:18:36.096Z,0.00
2019-01-16T02:19:36.012Z,0.00
2019-01-16T02:20:36.021Z,0.00
2019-01-16T02:21:35.837Z,0.00
2019-01-16T02:22:35.751Z,0.00
2019-01-16T02:23:35.806Z,0.00
2019-01-16T02:24:35.584Z,0.00
2019-01-16T02:25:35.511Z,0.00
2019-01-16T02:26:35.632Z,0.00
2019-01-16T02:27:35.324Z,0.00
2019-01-16T02:28:35.241Z,0.00
2019-01-16T02:29:35.231Z,0.00
2019-01-16T02:30:35.087Z,0.00
2019-01-16T02:31:34.984Z,0.00
2019-01-16T02:32:35.066Z,0.00
2019-01-16T02:33:34.813Z,0.00
2019-01-16T02:34:34.730Z,0.00
2019-01-16T02:35:34.693Z,0.00
2019-01-16T02:36:34.562Z,0.00
2019-01-16T02:37:34.473Z,0.00
2019-01-16T02:38:34.474Z,0.00
2019-01-16T02:39:34.303Z,0.00
2019-01-16T02:40:34.251Z,0.00
2019-01-16T02:41:34.289Z,0.00
2019-01-16T02:42:34.046Z,0.00
2019-01-16T02:43:33.959Z,0.00
2019-01-16T02:44:33.904Z,0.00
2019-01-16T02:45:33.788Z,0.00
2019-01-16T02:46:33.725Z,0.00
2019-01-16T02:47:33.712Z,0.00
2019-01-16T02:48:33.543Z,0.00
2019-01-16T02:49:33.527Z,0.00
2019-01-16T02:50:33.367Z,0.00
2019-01-16T02:51:33.367Z,0.00
2019-01-16T02:52:33.192Z,0.00
2019-01-16T02:53:33.145Z,0.00
2019-01-16T02:54:33.032Z,0.00
2019-01-16T02:55:33.156Z,0.00
2019-01-16T02:56:32.875Z,0.00
2019-01-16T02:57:32.976Z,0.00
2019-01-16T02:58:32.684Z,0.00
2019-01-16T02:59:32.767Z,0.00
2019-01-16T03:00:32.512Z,0.00
2019-01-16T03:01:34.632Z,0.00
2019-01-16T03:02:32.338Z,0.00
2019-01-16T03:03:32.388Z,0.00
2019-01-16T03:04:32.168Z,0.00
2019-01-16T03:05:32.085Z,0.00
2019-01-16T03:06:32.244Z,0.00
2019-01-16T03:07:31.934Z,0.00
2019-01-16T03:08:31.837Z,0.00
2019-01-16T03:09:31.809Z,0.00
2019-01-16T03:10:31.659Z,0.00
2019-01-16T03:11:31.595Z,0.00
2019-01-16T03:12:31.624Z,0.00
2019-01-16T03:13:31.402Z,0.00
2019-01-16T03:14:31.317Z,0.00
2019-01-16T03:15:31.456Z,0.00
2019-01-16T03:16:31.171Z,0.00
2019-01-16T03:17:31.249Z,0.00
2019-01-16T03:18:30.978Z,0.00
2019-01-16T03:19:31.057Z,0.00
2019-01-16T03:20:30.805Z,0.00
2019-01-16T03:21:30.721Z,0.00
2019-01-16T03:22:30.701Z,0.00
2019-01-16T03:23:30.548Z,0.00
2019-01-16T03:24:30.464Z,0.00
2019-01-16T03:25:30.484Z,0.00
2019-01-16T03:26:30.295Z,0.00
2019-01-16T03:27:30.231Z,0.00
2019-01-16T03:28:30.298Z,0.00
2019-01-16T03:29:30.050Z,0.00
2019-01-16T03:30:29.953Z,0.00
2019-01-16T03:31:29.909Z,0.00
2019-01-16T03:32:29.804Z,0.00
2019-01-16T03:33:29.718Z,0.00
2019-01-16T03:34:29.614Z,0.00
2019-01-16T03:35:29.735Z,0.00
2019-01-16T03:36:29.453Z,0.00
2019-01-16T03:37:29.581Z,0.00
2019-01-16T03:38:29.311Z,0.00
2019-01-16T03:39:29.347Z,0.00
2019-01-16T03:40:29.100Z,0.00
2019-01-16T03:41:29.155Z,0.00
2019-01-16T03:42:28.942Z,0.00
2019-01-16T03:43:28.965Z,0.00
2019-01-16T03:44:28.760Z,0.00
2019-01-16T03:45:28.772Z,0.00
2019-01-16T03:46:28.596Z,0.00
2019-01-16T03:47:28.523Z,0.00
2019-01-16T03:48:28.590Z,0.00
2019-01-16T03:49:28.330Z,0.00
2019-01-16T03:50:28.250Z,0.00
2019-01-16T03:51:28.200Z,0.00
2019-01-16T03:52:28.089Z,0.00
2019-01-16T03:53:28.007Z,0.00
2019-01-16T03:54:27.908Z,0.00
2019-01-16T03:55:28.034Z,0.00
2019-01-16T03:56:27.734Z,0.00
2019-01-16T03:57:27.678Z,0.00
2019-01-16T03:58:27.631Z,0.00
2019-01-16T03:59:27.474Z,0.00
2019-01-16T04:00:27.409Z,0.00
2019-01-16T04:01:27.451Z,0.00
2019-01-16T04:02:27.228Z,0.00
2019-01-16T04:03:27.148Z,0.00
2019-01-16T04:04:27.264Z,0.00
2019-01-16T04:05:26.964Z,0.00
2019-01-16T04:06:26.880Z,0.00
2019-01-16T04:07:26.869Z,0.00
2019-01-16T04:08:26.728Z,0.00
2019-01-16T04:09:26.683Z,0.00
2019-01-16T04:10:26.537Z,0.00
2019-01-16T04:11:26.454Z,0.00
2019-01-16T04:12:26.496Z,0.00
2019-01-16T04:13:26.305Z,0.00
2019-01-16T04:14:26.202Z,0.00
2019-01-16T04:15:26.311Z,0.00
2019-01-16T04:16:26.026Z,0.00
2019-01-16T04:17:25.950Z,0.00
2019-01-16T04:18:25.925Z,0.00
2019-01-16T04:19:25.784Z,0.00
2019-01-16T04:20:25.683Z,0.00
2019-01-16T04:21:25.735Z,0.00
2019-01-16T04:22:25.516Z,0.00
2019-01-16T04:23:25.426Z,0.00
2019-01-16T04:24:25.584Z,0.00
2019-01-16T04:25:25.284Z,0.00
2019-01-16T04:26:25.174Z,0.00
2019-01-16T04:27:25.190Z,0.00
2019-01-16T04:28:25.007Z,0.00
2019-01-16T04:29:24.931Z,0.00
2019-01-16T04:30:24.978Z,0.00
2019-01-16T04:31:24.742Z,0.00
2019-01-16T04:32:24.657Z,0.00
2019-01-16T04:33:24.794Z,0.00
2019-01-16T04:34:24.506Z,0.00
2019-01-16T04:35:24.409Z,0.00
2019-01-16T04:36:24.409Z,0.00
2019-01-16T04:37:24.235Z,0.00
2019-01-16T04:38:24.210Z,0.00
2019-01-16T04:39:24.094Z,0.00
2019-01-16T04:40:24.016Z,0.00
2019-01-16T04:41:23.888Z,0.00
2019-01-16T04:42:23.808Z,0.00
2019-01-16T04:43:23.866Z,0.00
2019-01-16T04:44:23.639Z,0.00
2019-01-16T04:45:23.569Z,0.00
2019-01-16T04:46:23.661Z,0.00
2019-01-16T04:47:23.382Z,0.00
2019-01-16T04:48:23.454Z,0.00
2019-01-16T04:49:30.122Z,0.00
2019-01-16T04:50:23.307Z,0.00
2019-01-16T04:51:23.039Z,0.00
2019-01-16T04:52:22.958Z,0.00
2019-01-16T04:53:23.079Z,0.00
2019-01-16T04:54:22.788Z,0.00
2019-01-16T04:55:22.710Z,0.00
2019-01-16T04:56:22.695Z,0.00
2019-01-16T04:57:22.525Z,0.00
2019-01-16T04:58:22.450Z,0.00
2019-01-16T04:59:22.502Z,0.00
2019-01-16T05:00:22.284Z,0.00
2019-01-16T05:01:22.186Z,0.00
2019-01-16T05:02:22.113Z,0.00
2019-01-16T05:03:22.011Z,0.00
2019-01-16T05:04:22.127Z,0.00
2019-01-16T05:05:21.858Z,0.00
2019-01-16T05:06:21.934Z,0.00
2019-01-16T05:07:21.676Z,0.00
2019-01-16T05:08:21.589Z,0.00
2019-01-16T05:09:21.546Z,0.00
2019-01-16T05:10:21.422Z,0.00
2019-01-16T05:11:21.352Z,0.00
2019-01-16T05:12:21.360Z,0.00
2019-01-16T05:13:21.165Z,0.00
2019-01-16T05:14:21.079Z,0.00
2019-01-16T05:15:21.180Z,0.00
2019-01-16T05:16:20.958Z,0.00
2019-01-16T05:17:20.822Z,0.00
2019-01-16T05:18:20.789Z,0.00
2019-01-16T05:19:20.658Z,0.00
2019-01-16T05:20:20.655Z,0.00
2019-01-16T05:21:20.494Z,0.00
2019-01-16T05:22:20.609Z,0.00
2019-01-16T05:23:20.309Z,0.00
2019-01-16T05:24:20.225Z,0.00
2019-01-16T05:25:20.215Z,0.00
2019-01-16T05:26:20.067Z,0.00
2019-01-16T05:27:19.978Z,0.00
2019-01-16T05:28:20.031Z,0.00
2019-01-16T05:29:19.802Z,0.00
2019-01-16T05:30:19.716Z,0.00
2019-01-16T05:31:19.678Z,0.00
2019-01-16T05:32:19.543Z,0.00
2019-01-16T05:33:19.469Z,0.00
2019-01-16T05:34:19.460Z,0.00
2019-01-16T05:35:19.295Z,0.00
2019-01-16T05:36:19.367Z,0.00
2019-01-16T05:37:19.117Z,0.00
2019-01-16T05:38:20.170Z,0.00
2019-01-16T05:39:18.952Z,0.00
2019-01-16T05:40:18.952Z,0.00
2019-01-16T05:41:18.775Z,0.00
2019-01-16T05:42:18.795Z,0.00
2019-01-16T05:43:18.608Z,0.00
2019-01-16T05:44:18.773Z,0.00
2019-01-16T05:45:18.441Z,0.00
2019-01-16T05:46:25.067Z,0.00
2019-01-16T05:47:18.298Z,0.00
2019-01-16T05:48:18.180Z,0.00
2019-01-16T05:49:18.101Z,0.00
2019-01-16T05:50:18.204Z,0.00
2019-01-16T05:51:17.927Z,0.00
2019-01-16T05:52:17.859Z,0.00
2019-01-16T05:53:17.757Z,0.00
2019-01-16T05:54:17.747Z,0.00
2019-01-16T05:55:17.586Z,0.00
2019-01-16T05:56:17.499Z,0.00
2019-01-16T05:57:17.594Z,0.00
2019-01-16T05:58:17.330Z,0.00
2019-01-16T05:59:17.244Z,0.00
2019-01-16T06:00:17.378Z,0.00
2019-01-16T06:01:17.075Z,0.00
2019-01-16T06:02:17.015Z,0.00
2019-01-16T06:03:16.988Z,0.00
2019-01-16T06:04:16.827Z,0.00
2019-01-16T06:05:16.738Z,0.00
2019-01-16T06:06:16.803Z,0.00
2019-01-16T06:07:16.584Z,0.00
2019-01-16T06:08:16.546Z,0.00
2019-01-16T06:09:17.176Z,0.00
2019-01-16T06:10:16.318Z,0.00
2019-01-16T06:11:16.230Z,0.00
2019-01-16T06:12:16.230Z,0.00
2019-01-16T06:13:16.068Z,0.00
2019-01-16T06:14:16.037Z,0.00
2019-01-16T06:15:15.905Z,0.00
2019-01-16T06:16:15.848Z,0.00
2019-01-16T06:17:15.718Z,0.00
2019-01-16T06:18:15.685Z,0.00
2019-01-16T06:19:15.549Z,0.00
2019-01-16T06:20:15.668Z,0.00
2019-01-16T06:21:15.375Z,0.00
2019-01-16T06:22:15.476Z,0.00
2019-01-16T06:23:15.218Z,0.00
2019-01-16T06:24:15.283Z,0.00
2019-01-16T06:25:15.041Z,0.00
2019-01-16T06:26:15.096Z,0.00
2019-01-16T06:27:14.866Z,0.00
2019-01-16T06:28:14.936Z,0.00
2019-01-16T06:29:14.695Z,0.00
2019-01-16T06:30:14.711Z,0.00
2019-01-16T06:31:14.521Z,0.00
2019-01-16T06:32:14.516Z,0.00
2019-01-16T06:33:14.369Z,0.00
2019-01-16T06:34:14.326Z,0.00
2019-01-16T06:35:14.186Z,0.00
2019-01-16T06:36:14.136Z,0.00
2019-01-16T06:37:14.012Z,0.00
2019-01-16T06:38:13.986Z,0.00
2019-01-16T06:39:13.845Z,0.00
2019-01-16T06:40:13.766Z,0.00
2019-01-16T06:41:13.764Z,0.00
2019-01-16T06:42:13.588Z,0.00
2019-01-16T06:43:13.521Z,0.00
2019-01-16T06:44:13.983Z,0.00
2019-01-16T06:45:13.329Z,0.00
2019-01-16T06:46:13.244Z,0.00
2019-01-16T06:47:13.182Z,0.00
2019-01-16T06:48:13.076Z,0.00
2019-01-16T06:49:13.022Z,0.00
2019-01-16T06:50:16.686Z,0.00
2019-01-16T06:51:12.822Z,0.00
2019-01-16T06:52:12.736Z,0.00
2019-01-16T06:53:12.812Z,0.00
2019-01-16T06:54:12.581Z,0.00
2019-01-16T06:55:12.624Z,0.00
2019-01-16T06:56:12.395Z,0.00
2019-01-16T06:57:12.431Z,0.00
2019-01-16T06:58:12.222Z,0.00
2019-01-16T06:59:12.156Z,0.00
2019-01-16T07:00:12.056Z,0.00
2019-01-16T07:01:12.049Z,0.00
2019-01-16T07:02:11.889Z,0.00
2019-01-16T07:03:11.798Z,0.00
2019-01-16T07:04:11.725Z,0.00
2019-01-16T07:05:11.665Z,0.00
2019-01-16T07:06:11.540Z,0.00
2019-01-16T07:07:11.678Z,0.00
2019-01-16T07:08:11.376Z,0.00
2019-01-16T07:09:11.303Z,0.00
2019-01-16T07:10:11.213Z,0.00
2019-01-16T07:11:11.292Z,0.00
2019-01-16T07:12:11.030Z,0.00
2019-01-16T07:13:10.955Z,0.00
2019-01-16T07:14:10.877Z,0.00
2019-01-16T07:15:10.920Z,0.00
2019-01-16T07:16:10.696Z,0.00
2019-01-16T07:17:10.723Z,0.00
2019-01-16T07:18:10.522Z,0.00
2019-01-16T07:19:10.561Z,0.00
2019-01-16T07:20:10.348Z,0.00
2019-01-16T07:21:10.348Z,0.00
2019-01-16T07:22:10.183Z,0.00
2019-01-16T07:23:10.147Z,0.00
2019-01-16T07:24:10.010Z,0.00
2019-01-16T07:25:09.943Z,0.00
2019-01-16T07:26:09.963Z,0.00
2019-01-16T07:27:09.762Z,0.00
2019-01-16T07:28:09.667Z,0.00
2019-01-16T07:29:09.779Z,0.00
2019-01-16T07:30:09.519Z,5.63
2019-01-16T07:31:09.586Z,5.63
2019-01-16T07:32:09.328Z,5.63
2019-01-16T07:33:09.394Z,5.63
2019-01-16T07:34:09.182Z,5.63
2019-01-16T07:35:09.234Z,5.63
2019-01-16T07:36:08.985Z,5.63
2019-01-16T07:37:09.020Z,5.63
2019-01-16T07:38:08.818Z,5.63
2019-01-16T07:39:08.731Z,5.63
2019-01-16T07:40:08.664Z,5.63
2019-01-16T07:41:08.626Z,5.63
2019-01-16T07:42:08.482Z,11.25
2019-01-16T07:43:08.398Z,11.25
2019-01-16T07:44:08.322Z,11.25
2019-01-16T07:45:08.281Z,11.25
2019-01-16T07:46:08.141Z,16.88
2019-01-16T07:47:08.053Z,16.88
2019-01-16T07:48:08.061Z,16.88
2019-01-16T07:49:07.877Z,16.88
2019-01-16T07:50:07.811Z,22.50
2019-01-16T07:51:07.711Z,22.50
2019-01-16T07:52:07.675Z,22.50
2019-01-16T07:53:07.535Z,22.50
2019-01-16T07:54:07.451Z,22.50
2019-01-16T07:55:07.381Z,28.13
2019-01-16T07:56:07.497Z,28.13
2019-01-16T07:57:07.195Z,33.75
2019-01-16T07:58:07.309Z,33.75
2019-01-16T07:59:07.025Z,33.75
2019-01-16T08:00:07.153Z,33.75
2019-01-16T08:01:06.864Z,33.75
2019-01-16T08:02:06.928Z,33.75
2019-01-16T08:03:06.690Z,33.75
2019-01-16T08:04:06.732Z,33.75
2019-01-16T08:05:06.513Z,33.75
2019-01-16T08:06:06.578Z,39.38
2019-01-16T08:07:06.342Z,39.38
2019-01-16T08:08:06.351Z,39.38
2019-01-16T08:09:06.182Z,39.38
2019-01-16T08:10:06.088Z,39.38
2019-01-16T08:11:06.196Z,39.38
2019-01-16T08:12:05.917Z,45.00
2019-01-16T08:13:05.830Z,50.63
2019-01-16T08:14:05.775Z,50.63
2019-01-16T08:15:05.665Z,56.25
2019-01-16T08:16:05.613Z,56.25
2019-01-16T08:17:05.499Z,61.88
2019-01-16T08:18:05.595Z,61.88
2019-01-16T08:19:05.320Z,61.88
2019-01-16T08:20:05.403Z,67.50
2019-01-16T08:21:05.170Z,73.13
2019-01-16T08:22:05.213Z,78.75
2019-01-16T08:23:04.984Z,78.75
2019-01-16T08:24:05.023Z,90.00
2019-01-16T08:25:04.825Z,101.25
2019-01-16T08:26:04.740Z,112.50
2019-01-16T08:27:04.839Z,123.75
2019-01-16T08:28:04.564Z,129.38
2019-01-16T08:29:04.473Z,135.00
2019-01-16T08:30:04.448Z,140.63
2019-01-16T08:31:04.317Z,140.63
2019-01-16T08:32:04.211Z,140.63
2019-01-16T08:33:04.263Z,146.25
2019-01-16T08:34:04.042Z,151.88
2019-01-16T08:35:03.955Z,157.50
2019-01-16T08:36:03.914Z,163.13
2019-01-16T08:37:03.794Z,163.13
2019-01-16T08:38:03.703Z,168.75
2019-01-16T08:39:03.686Z,163.13
2019-01-16T08:40:03.534Z,163.13
2019-01-16T08:41:03.475Z,157.50
2019-01-16T08:42:03.500Z,151.88
2019-01-16T08:43:03.277Z,151.88
2019-01-16T08:44:03.311Z,146.25
2019-01-16T08:45:03.112Z,146.25
2019-01-16T08:46:03.029Z,146.25
2019-01-16T08:47:03.157Z,146.25
2019-01-16T08:48:02.854Z,140.63
2019-01-16T08:49:02.773Z,140.63
2019-01-16T08:50:02.744Z,140.63
2019-01-16T08:51:02.600Z,151.88
2019-01-16T08:52:02.581Z,163.13
2019-01-16T08:53:02.432Z,163.13
2019-01-16T08:54:02.560Z,163.13
2019-01-16T08:55:02.254Z,163.13
2019-01-16T08:56:02.201Z,163.13
2019-01-16T08:57:02.202Z,180.00
2019-01-16T08:58:02.002Z,185.63
2019-01-16T08:59:01.919Z,191.25
2019-01-16T09:00:01.984Z,196.88
2019-01-16T09:01:01.750Z,196.88
2019-01-16T09:02:01.837Z,202.50
2019-01-16T09:03:01.573Z,213.75
2019-01-16T09:04:01.603Z,219.38
2019-01-16T09:05:01.412Z,225.00
2019-01-16T09:06:01.328Z,225.00
2019-01-16T09:07:01.460Z,225.00
2019-01-16T09:08:01.149Z,219.38
2019-01-16T09:09:01.063Z,219.38
2019-01-16T09:10:01.023Z,225.00
2019-01-16T09:11:00.896Z,225.00
2019-01-16T09:12:01.075Z,225.00
2019-01-16T09:13:00.734Z,230.63
2019-01-16T09:14:00.854Z,247.50
2019-01-16T09:15:00.553Z,247.50
2019-01-16T09:16:00.656Z,241.88
2019-01-16T09:17:00.385Z,247.50
2019-01-16T09:18:00.497Z,258.75
2019-01-16T09:19:00.215Z,264.38
2019-01-16T09:20:00.183Z,253.13
2019-01-16T09:21:00.076Z,236.25
2019-01-16T09:21:59.964Z,230.63
2019-01-16T09:22:59.891Z,241.88
2019-01-16T09:23:59.892Z,247.50
2019-01-16T09:24:59.707Z,253.13
2019-01-16T09:25:59.630Z,258.75
2019-01-16T09:26:59.706Z,247.50
2019-01-16T09:27:59.471Z,236.25
2019-01-16T09:28:59.392Z,236.25
2019-01-16T09:29:59.315Z,230.63
2019-01-16T09:30:59.201Z,230.63
2019-01-16T09:31:59.329Z,236.25
2019-01-16T09:32:59.044Z,241.88
2019-01-16T09:33:59.138Z,253.13
2019-01-16T09:34:58.868Z,264.38
2019-01-16T09:35:58.945Z,275.63
2019-01-16T09:36:58.701Z,275.63
2019-01-16T09:37:58.792Z,281.25
2019-01-16T09:38:58.517Z,281.25
2019-01-16T09:39:58.562Z,281.25
2019-01-16T09:40:58.350Z,292.50
2019-01-16T09:41:58.267Z,292.50
2019-01-16T09:42:59.231Z,286.88
2019-01-16T09:43:58.099Z,286.88
2019-01-16T09:44:58.015Z,281.25
2019-01-16T09:45:57.988Z,286.88
2019-01-16T09:46:57.840Z,292.50
2019-01-16T09:47:57.797Z,298.13
2019-01-16T09:48:57.691Z,286.88
2019-01-16T09:49:57.617Z,275.63
2019-01-16T09:50:57.504Z,270.00
2019-01-16T09:51:57.625Z,270.00
2019-01-16T09:52:57.333Z,264.38
2019-01-16T09:53:57.459Z,253.13
2019-01-16T09:54:57.168Z,253.13
2019-01-16T09:55:57.237Z,253.13
2019-01-16T09:56:56.997Z,253.13
2019-01-16T09:57:57.043Z,253.13
2019-01-16T09:58:56.840Z,247.50
2019-01-16T09:59:56.852Z,247.50
2019-01-16T10:00:56.658Z,247.50
2019-01-16T10:01:56.666Z,258.75
2019-01-16T10:02:56.488Z,258.75
2019-01-16T10:03:56.501Z,253.13
2019-01-16T10:04:56.937Z,241.88
2019-01-16T10:05:56.631Z,236.25
2019-01-16T10:06:56.285Z,236.25
2019-01-16T10:07:56.074Z,241.88
2019-01-16T10:08:56.003Z,241.88
2019-01-16T10:09:56.100Z,241.88
2019-01-16T10:10:55.807Z,241.88
2019-01-16T10:11:55.722Z,241.88
2019-01-16T10:12:55.709Z,247.50
2019-01-16T10:13:55.560Z,253.13
2019-01-16T10:14:55.551Z,258.75
2019-01-16T10:15:55.388Z,270.00
2019-01-16T10:16:55.327Z,264.38
2019-01-16T10:17:55.220Z,264.38
2019-01-16T10:18:55.347Z,281.25
2019-01-16T10:19:55.059Z,292.50
2019-01-16T10:20:55.834Z,298.13
2019-01-16T10:21:54.874Z,303.75
2019-01-16T10:22:54.958Z,303.75
2019-01-16T10:23:54.701Z,309.38
2019-01-16T10:24:54.808Z,298.13
2019-01-16T10:25:54.544Z,275.63
2019-01-16T10:26:54.583Z,264.38
2019-01-16T10:27:54.385Z,258.75
2019-01-16T10:28:54.777Z,241.88
2019-01-16T10:29:54.834Z,236.25
2019-01-16T10:30:54.200Z,247.50
2019-01-16T10:31:54.037Z,275.63
2019-01-16T10:32:53.942Z,343.13
2019-01-16T10:33:54.007Z,399.38
2019-01-16T10:34:54.069Z,405.00
2019-01-16T10:35:53.691Z,393.75
2019-01-16T10:36:53.619Z,399.38
2019-01-16T10:37:53.517Z,421.88
2019-01-16T10:38:53.630Z,450.00
2019-01-16T10:39:53.353Z,455.63
2019-01-16T10:40:53.475Z,450.00
2019-01-16T10:41:53.183Z,427.50
2019-01-16T10:42:53.244Z,410.63
2019-01-16T10:43:53.010Z,416.25
2019-01-16T10:44:53.052Z,433.13
2019-01-16T10:45:52.857Z,444.38
2019-01-16T10:46:52.755Z,466.88
2019-01-16T10:47:52.869Z,455.63
2019-01-16T10:48:52.588Z,472.50
2019-01-16T10:49:52.500Z,478.13
2019-01-16T10:50:52.510Z,478.13
2019-01-16T10:51:52.337Z,472.50
2019-01-16T10:52:52.253Z,466.88
2019-01-16T10:53:52.297Z,433.13
2019-01-16T10:54:52.083Z,410.63
2019-01-16T10:55:52.008Z,399.38
2019-01-16T10:56:52.110Z,399.38
2019-01-16T10:57:51.830Z,410.63
2019-01-16T10:58:51.917Z,433.13
2019-01-16T10:59:51.660Z,427.50
2019-01-16T11:00:51.763Z,433.13
2019-01-16T11:01:52.354Z,450.00
2019-01-16T11:02:51.406Z,421.88
2019-01-16T11:03:51.336Z,416.25
2019-01-16T11:04:51.235Z,416.25
2019-01-16T11:05:51.170Z,438.75
2019-01-16T11:06:51.152Z,450.00
2019-01-16T11:07:50.983Z,455.63
2019-01-16T11:08:50.962Z,444.38
2019-01-16T11:09:50.817Z,421.88
2019-01-16T11:10:50.801Z,410.63
2019-01-16T11:11:50.646Z,399.38
2019-01-16T11:12:50.783Z,405.00
2019-01-16T11:13:50.478Z,427.50
2019-01-16T11:14:50.595Z,455.63
2019-01-16T11:15:50.305Z,466.88
2019-01-16T11:16:56.645Z,466.88
2019-01-16T11:17:50.141Z,461.25
2019-01-16T11:18:50.209Z,466.88
2019-01-16T11:19:49.974Z,489.38
2019-01-16T11:20:50.016Z,478.13
2019-01-16T11:21:49.822Z,450.00
2019-01-16T11:22:49.720Z,444.38
2019-01-16T11:23:49.834Z,444.38
2019-01-16T11:24:49.547Z,427.50
2019-01-16T11:25:49.466Z,450.00
2019-01-16T11:26:49.474Z,483.75
2019-01-16T11:27:49.299Z,478.13
2019-01-16T11:28:49.252Z,433.13
2019-01-16T11:29:49.140Z,421.88
2019-01-16T11:30:49.059Z,399.38
2019-01-16T11:31:48.977Z,388.13
2019-01-16T11:32:49.072Z,376.88
2019-01-16T11:33:48.793Z,365.63
2019-01-16T11:34:48.882Z,348.75
2019-01-16T11:35:48.625Z,348.75
2019-01-16T11:36:48.548Z,360.00
2019-01-16T11:37:48.499Z,348.75
2019-01-16T11:38:48.374Z,337.50
2019-01-16T11:39:48.280Z,315.00
2019-01-16T11:40:48.306Z,315.00
2019-01-16T11:41:48.132Z,320.63
2019-01-16T11:42:48.024Z,298.13
2019-01-16T11:43:48.120Z,270.00
2019-01-16T11:44:47.865Z,253.13
2019-01-16T11:45:47.928Z,247.50
2019-01-16T11:46:47.714Z,225.00
2019-01-16T11:47:47.611Z,213.75
2019-01-16T11:48:47.529Z,208.13
2019-01-16T11:49:47.545Z,196.88
2019-01-16T11:50:47.358Z,191.25
2019-01-16T11:51:47.289Z,180.00
2019-01-16T11:52:47.191Z,180.00
2019-01-16T11:53:47.165Z,180.00
2019-01-16T11:54:47.040Z,185.63
2019-01-16T11:55:46.929Z,174.38
2019-01-16T11:56:47.226Z,174.38
2019-01-16T11:57:46.762Z,168.75
2019-01-16T11:58:46.787Z,168.75
2019-01-16T11:59:46.604Z,168.75
2019-01-16T12:00:46.597Z,174.38
2019-01-16T12:01:46.419Z,185.63
2019-01-16T12:02:46.447Z,191.25
2019-01-16T12:03:46.255Z,202.50
2019-01-16T12:04:46.209Z,208.13
2019-01-16T12:05:46.083Z,208.13
2019-01-16T12:06:46.018Z,208.13
2019-01-16T12:07:45.923Z,196.88
2019-01-16T12:08:46.032Z,202.50
2019-01-16T12:09:45.748Z,202.50
2019-01-16T12:10:45.842Z,196.88
2019-01-16T12:11:45.571Z,196.88
2019-01-16T12:12:45.683Z,202.50
2019-01-16T12:13:45.407Z,196.88
2019-01-16T12:14:45.461Z,185.63
2019-01-16T12:15:45.231Z,185.63
2019-01-16T12:16:45.270Z,180.00
2019-01-16T12:17:45.077Z,168.75
2019-01-16T12:18:45.002Z,174.38
2019-01-16T12:19:45.085Z,174.38
2019-01-16T12:20:44.808Z,174.38
2019-01-16T12:21:44.730Z,168.75
2019-01-16T12:22:44.723Z,163.13
2019-01-16T12:23:44.553Z,163.13
2019-01-16T12:24:44.472Z,168.75
2019-01-16T12:25:44.513Z,174.38
2019-01-16T12:26:44.307Z,168.75
2019-01-16T12:27:44.229Z,163.13
2019-01-16T12:28:44.323Z,168.75
2019-01-16T12:29:44.041Z,174.38
2019-01-16T12:30:44.144Z,185.63
2019-01-16T12:31:43.874Z,196.88
2019-01-16T12:32:43.820Z,196.88
2019-01-16T12:33:43.703Z,191.25
2019-01-16T12:34:43.769Z,196.88
2019-01-16T12:35:43.538Z,185.63
2019-01-16T12:36:43.601Z,180.00
2019-01-16T12:37:43.366Z,168.75
2019-01-16T12:38:43.403Z,168.75
2019-01-16T12:39:43.189Z,168.75
2019-01-16T12:40:43.175Z,168.75
2019-01-16T12:41:43.020Z,168.75
2019-01-16T12:42:42.982Z,180.00
2019-01-16T12:43:42.871Z,185.63
2019-01-16T12:44:42.792Z,185.63
2019-01-16T12:45:42.684Z,180.00
2019-01-16T12:46:42.822Z,174.38
2019-01-16T12:47:42.508Z,174.38
2019-01-16T12:48:42.659Z,174.38
2019-01-16T12:49:42.338Z,174.38
2019-01-16T12:50:42.422Z,185.63
2019-01-16T12:51:42.172Z,196.88
2019-01-16T12:52:42.232Z,191.25
2019-01-16T12:53:42.021Z,191.25
2019-01-16T12:54:42.042Z,191.25
2019-01-16T12:55:41.840Z,191.25
2019-01-16T12:56:41.852Z,202.50
2019-01-16T12:57:41.663Z,219.38